sensor_id;sensor_type;location;lat;lon;timestamp;temperature;humidity
84012;DHT22;74081;52.490;13.428;2024-02-21T00:01:26;8.70;84.80
84012;DHT22;74081;52.490;13.428;2024-02-21T00:03:54;8.70;84.80
84012;DHT22;74081;52.490;13.428;2024-02-21T00:06:20;8.70;84.80
84012;DHT22;74081;52.490;13.428;2024-02-21T00:08:47;8.70;84.80
84012;DHT22;74081;52.490;13.428;2024-02-21T00:11:17;8.70;84.80
84012;DHT22;74081;52.490;13.428;2024-02-21T00:13:44;8.70;84.80
84012;DHT22;74081;52.490;13.428;2024-02-21T00:16:10;8.70;84.80
84012;DHT22;74081;52.490;13.428;2024-02-21T00:18:38;8.70;84.80
84012;DHT22;74081;52.490;13.428;2024-02-21T00:21:05;8.70;84.80
84012;DHT22;74081;52.490;13.428;2024-02-21T00:23:31;8.70;84.80
84012;DHT22;74081;52.490;13.428;2024-02-21T00:25:59;8.70;84.80
84012;DHT22;74081;52.490;13.428;2024-02-21T00:28:26;8.70;84.80
84012;DHT22;74081;52.490;13.428;2024-02-21T00:30:52;8.70;84.80
84012;DHT22;74081;52.490;13.428;2024-02-21T00:33:20;8.70;84.80
84012;DHT22;74081;52.490;13.428;2024-02-21T00:35:46;8.70;84.80
84012;DHT22;74081;52.490;13.428;2024-02-21T00:38:13;8.70;84.80
84012;DHT22;74081;52.490;13.428;2024-02-21T00:40:40;8.70;84.80
84012;DHT22;74081;52.490;13.428;2024-02-21T00:43:06;8.70;84.80
84012;DHT22;74081;52.490;13.428;2024-02-21T00:45:33;8.70;84.80
84012;DHT22;74081;52.490;13.428;2024-02-21T00:48:00;8.70;84.80
84012;DHT22;74081;52.490;13.428;2024-02-21T00:50:27;8.70;84.80
84012;DHT22;74081;52.490;13.428;2024-02-21T00:52:53;8.70;84.80
84012;DHT22;74081;52.490;13.428;2024-02-21T00:55:21;8.70;84.80
84012;DHT22;74081;52.490;13.428;2024-02-21T00:57:47;8.70;84.80
84012;DHT22;74081;52.490;13.428;2024-02-21T01:00:14;8.70;84.80
84012;DHT22;74081;52.490;13.428;2024-02-21T01:02:41;8.70;84.80
84012;DHT22;74081;52.490;13.428;2024-02-21T01:05:08;8.80;84.80
84012;DHT22;74081;52.490;13.428;2024-02-21T01:07:35;8.70;84.80
84012;DHT22;74081;52.490;13.428;2024-02-21T01:10:02;8.70;84.80
84012;DHT22;74081;52.490;13.428;2024-02-21T01:12:29;8.70;84.80
84012;DHT22;74081;52.490;13.428;2024-02-21T01:14:56;8.70;84.80
84012;DHT22;74081;52.490;13.428;2024-02-21T01:17:23;8.70;84.80
84012;DHT22;74081;52.490;13.428;2024-02-21T01:19:50;8.70;84.80
84012;DHT22;74081;52.490;13.428;2024-02-21T01:22:16;8.70;84.80
84012;DHT22;74081;52.490;13.428;2024-02-21T01:24:44;8.60;84.80
84012;DHT22;74081;52.490;13.428;2024-02-21T01:27:11;8.60;84.80
84012;DHT22;74081;52.490;13.428;2024-02-21T01:29:38;8.60;84.80
84012;DHT22;74081;52.490;13.428;2024-02-21T01:32:04;8.70;84.80
84012;DHT22;74081;52.490;13.428;2024-02-21T01:34:31;8.70;84.80
84012;DHT22;74081;52.490;13.428;2024-02-21T01:36:59;8.70;84.80
84012;DHT22;74081;52.490;13.428;2024-02-21T01:39:26;8.80;84.80
84012;DHT22;74081;52.490;13.428;2024-02-21T01:41:53;8.70;84.80
84012;DHT22;74081;52.490;13.428;2024-02-21T01:44:20;8.80;84.80
84012;DHT22;74081;52.490;13.428;2024-02-21T01:46:47;8.80;84.80
84012;DHT22;74081;52.490;13.428;2024-02-21T01:49:13;8.70;84.80
84012;DHT22;74081;52.490;13.428;2024-02-21T01:51:41;8.70;84.80
84012;DHT22;74081;52.490;13.428;2024-02-21T01:54:07;8.70;84.80
84012;DHT22;74081;52.490;13.428;2024-02-21T01:56:34;8.80;84.80
84012;DHT22;74081;52.490;13.428;2024-02-21T01:59:02;8.80;84.80
84012;DHT22;74081;52.490;13.428;2024-02-21T02:01:29;8.80;84.80
84012;DHT22;74081;52.490;13.428;2024-02-21T02:03:56;8.80;84.80
84012;DHT22;74081;52.490;13.428;2024-02-21T02:06:24;8.80;84.80
84012;DHT22;74081;52.490;13.428;2024-02-21T02:08:51;8.80;84.80
84012;DHT22;74081;52.490;13.428;2024-02-21T02:11:17;8.80;84.80
84012;DHT22;74081;52.490;13.428;2024-02-21T02:13:45;8.80;84.80
84012;DHT22;74081;52.490;13.428;2024-02-21T02:16:12;8.80;84.80
84012;DHT22;74081;52.490;13.428;2024-02-21T02:18:39;8.80;84.80
84012;DHT22;74081;52.490;13.428;2024-02-21T02:21:08;8.80;84.80
84012;DHT22;74081;52.490;13.428;2024-02-21T02:23:37;8.70;84.80
84012;DHT22;74081;52.490;13.428;2024-02-21T02:26:03;8.80;84.80
84012;DHT22;74081;52.490;13.428;2024-02-21T02:28:30;8.80;84.80
84012;DHT22;74081;52.490;13.428;2024-02-21T02:30:57;8.80;84.80
84012;DHT22;74081;52.490;13.428;2024-02-21T02:33:24;8.70;84.80
84012;DHT22;74081;52.490;13.428;2024-02-21T02:35:51;8.80;84.80
84012;DHT22;74081;52.490;13.428;2024-02-21T02:38:18;8.70;84.80
84012;DHT22;74081;52.490;13.428;2024-02-21T02:40:45;8.70;84.80
84012;DHT22;74081;52.490;13.428;2024-02-21T02:43:12;8.70;84.80
84012;DHT22;74081;52.490;13.428;2024-02-21T02:45:39;8.70;84.80
84012;DHT22;74081;52.490;13.428;2024-02-21T02:48:06;8.70;84.80
84012;DHT22;74081;52.490;13.428;2024-02-21T02:50:33;8.70;84.80
84012;DHT22;74081;52.490;13.428;2024-02-21T02:53:00;8.70;84.80
84012;DHT22;74081;52.490;13.428;2024-02-21T02:55:27;8.80;84.80
84012;DHT22;74081;52.490;13.428;2024-02-21T02:57:54;8.70;84.80
84012;DHT22;74081;52.490;13.428;2024-02-21T03:00:21;8.70;84.80
84012;DHT22;74081;52.490;13.428;2024-02-21T03:02:48;8.70;84.80
84012;DHT22;74081;52.490;13.428;2024-02-21T03:05:16;8.70;84.80
84012;DHT22;74081;52.490;13.428;2024-02-21T03:07:44;8.70;84.80
84012;DHT22;74081;52.490;13.428;2024-02-21T03:10:11;8.70;84.80
84012;DHT22;74081;52.490;13.428;2024-02-21T03:12:38;8.70;84.80
84012;DHT22;74081;52.490;13.428;2024-02-21T03:15:05;8.70;84.80
84012;DHT22;74081;52.490;13.428;2024-02-21T03:17:32;8.70;84.80
84012;DHT22;74081;52.490;13.428;2024-02-21T03:20:02;8.70;84.80
84012;DHT22;74081;52.490;13.428;2024-02-21T03:22:31;8.60;84.80
84012;DHT22;74081;52.490;13.428;2024-02-21T03:24:59;8.70;84.80
84012;DHT22;74081;52.490;13.428;2024-02-21T03:27:26;8.70;84.80
84012;DHT22;74081;52.490;13.428;2024-02-21T03:29:53;8.70;84.80
84012;DHT22;74081;52.490;13.428;2024-02-21T03:32:19;8.70;84.80
84012;DHT22;74081;52.490;13.428;2024-02-21T03:34:46;8.70;84.80
84012;DHT22;74081;52.490;13.428;2024-02-21T03:37:13;8.60;84.80
84012;DHT22;74081;52.490;13.428;2024-02-21T03:39:41;8.60;84.80
84012;DHT22;74081;52.490;13.428;2024-02-21T03:42:08;8.60;84.80
84012;DHT22;74081;52.490;13.428;2024-02-21T03:44:34;8.70;84.80
84012;DHT22;74081;52.490;13.428;2024-02-21T03:47:01;8.70;84.80
84012;DHT22;74081;52.490;13.428;2024-02-21T03:49:28;8.70;84.80
84012;DHT22;74081;52.490;13.428;2024-02-21T03:51:55;8.70;84.80
84012;DHT22;74081;52.490;13.428;2024-02-21T03:54:23;8.70;84.80
84012;DHT22;74081;52.490;13.428;2024-02-21T03:56:50;8.70;84.80
84012;DHT22;74081;52.490;13.428;2024-02-21T03:59:16;8.60;84.80
84012;DHT22;74081;52.490;13.428;2024-02-21T04:01:43;8.60;84.80
84012;DHT22;74081;52.490;13.428;2024-02-21T04:04:10;8.50;84.80
84012;DHT22;74081;52.490;13.428;2024-02-21T04:06:45;8.60;84.80
84012;DHT22;74081;52.490;13.428;2024-02-21T04:09:12;8.50;84.80
84012;DHT22;74081;52.490;13.428;2024-02-21T04:11:39;8.50;84.80
84012;DHT22;74081;52.490;13.428;2024-02-21T04:14:06;8.50;84.80
84012;DHT22;74081;52.490;13.428;2024-02-21T04:16:34;8.60;84.80
84012;DHT22;74081;52.490;13.428;2024-02-21T04:19:00;8.60;84.80
84012;DHT22;74081;52.490;13.428;2024-02-21T04:21:28;8.60;84.80
84012;DHT22;74081;52.490;13.428;2024-02-21T04:23:55;8.60;84.80
84012;DHT22;74081;52.490;13.428;2024-02-21T04:26:22;8.60;84.80
84012;DHT22;74081;52.490;13.428;2024-02-21T04:28:49;8.60;84.80
84012;DHT22;74081;52.490;13.428;2024-02-21T04:31:16;8.50;84.80
84012;DHT22;74081;52.490;13.428;2024-02-21T04:33:43;8.50;84.80
84012;DHT22;74081;52.490;13.428;2024-02-21T04:36:09;8.50;84.80
84012;DHT22;74081;52.490;13.428;2024-02-21T04:38:36;8.60;84.80
84012;DHT22;74081;52.490;13.428;2024-02-21T04:41:05;8.60;84.80
84012;DHT22;74081;52.490;13.428;2024-02-21T04:43:32;8.60;84.80
84012;DHT22;74081;52.490;13.428;2024-02-21T04:45:59;8.60;84.80
84012;DHT22;74081;52.490;13.428;2024-02-21T04:48:26;8.50;84.80
84012;DHT22;74081;52.490;13.428;2024-02-21T04:50:53;8.50;84.80
84012;DHT22;74081;52.490;13.428;2024-02-21T04:53:20;8.50;84.80
84012;DHT22;74081;52.490;13.428;2024-02-21T04:55:47;8.40;84.80
84012;DHT22;74081;52.490;13.428;2024-02-21T04:58:14;8.50;84.80
84012;DHT22;74081;52.490;13.428;2024-02-21T05:00:41;8.50;84.80
84012;DHT22;74081;52.490;13.428;2024-02-21T05:03:08;8.50;84.80
84012;DHT22;74081;52.490;13.428;2024-02-21T05:05:35;8.50;84.80
84012;DHT22;74081;52.490;13.428;2024-02-21T05:08:02;8.50;84.80
84012;DHT22;74081;52.490;13.428;2024-02-21T05:10:29;8.50;84.80
84012;DHT22;74081;52.490;13.428;2024-02-21T05:12:56;8.40;84.80
84012;DHT22;74081;52.490;13.428;2024-02-21T05:15:23;8.50;84.80
84012;DHT22;74081;52.490;13.428;2024-02-21T05:17:50;8.50;84.80
84012;DHT22;74081;52.490;13.428;2024-02-21T05:20:17;8.50;84.80
84012;DHT22;74081;52.490;13.428;2024-02-21T05:22:44;8.50;84.80
84012;DHT22;74081;52.490;13.428;2024-02-21T05:25:11;8.50;84.80
84012;DHT22;74081;52.490;13.428;2024-02-21T05:27:37;8.50;84.80
84012;DHT22;74081;52.490;13.428;2024-02-21T05:30:05;8.40;84.80
84012;DHT22;74081;52.490;13.428;2024-02-21T05:32:33;8.50;84.80
84012;DHT22;74081;52.490;13.428;2024-02-21T05:35:00;8.50;84.80
84012;DHT22;74081;52.490;13.428;2024-02-21T05:37:27;8.40;84.80
84012;DHT22;74081;52.490;13.428;2024-02-21T05:39:54;8.50;84.80
84012;DHT22;74081;52.490;13.428;2024-02-21T05:42:20;8.40;84.80
84012;DHT22;74081;52.490;13.428;2024-02-21T05:44:47;8.40;84.80
84012;DHT22;74081;52.490;13.428;2024-02-21T05:47:14;8.50;84.80
84012;DHT22;74081;52.490;13.428;2024-02-21T05:49:42;8.50;84.80
84012;DHT22;74081;52.490;13.428;2024-02-21T05:52:09;8.50;84.80
84012;DHT22;74081;52.490;13.428;2024-02-21T05:54:39;8.50;84.80
84012;DHT22;74081;52.490;13.428;2024-02-21T05:57:07;8.50;84.80
84012;DHT22;74081;52.490;13.428;2024-02-21T05:59:34;8.50;84.80
84012;DHT22;74081;52.490;13.428;2024-02-21T06:02:03;8.50;84.80
84012;DHT22;74081;52.490;13.428;2024-02-21T06:04:31;8.50;84.80
84012;DHT22;74081;52.490;13.428;2024-02-21T06:06:58;8.50;84.80
84012;DHT22;74081;52.490;13.428;2024-02-21T06:09:25;8.40;84.80
84012;DHT22;74081;52.490;13.428;2024-02-21T06:11:51;8.50;84.80
84012;DHT22;74081;52.490;13.428;2024-02-21T06:14:19;8.50;84.80
84012;DHT22;74081;52.490;13.428;2024-02-21T06:16:46;8.50;84.80
84012;DHT22;74081;52.490;13.428;2024-02-21T06:19:13;8.50;84.80
84012;DHT22;74081;52.490;13.428;2024-02-21T06:21:40;8.50;84.80
84012;DHT22;74081;52.490;13.428;2024-02-21T06:24:07;8.40;84.80
84012;DHT22;74081;52.490;13.428;2024-02-21T06:26:33;8.40;84.80
84012;DHT22;74081;52.490;13.428;2024-02-21T06:29:01;8.30;84.80
84012;DHT22;74081;52.490;13.428;2024-02-21T06:31:28;8.30;84.80
84012;DHT22;74081;52.490;13.428;2024-02-21T06:33:56;8.40;84.80
84012;DHT22;74081;52.490;13.428;2024-02-21T06:36:23;8.50;84.80
84012;DHT22;74081;52.490;13.428;2024-02-21T06:38:50;8.50;84.80
84012;DHT22;74081;52.490;13.428;2024-02-21T06:41:17;8.60;84.80
84012;DHT22;74081;52.490;13.428;2024-02-21T06:43:45;8.60;84.80
84012;DHT22;74081;52.490;13.428;2024-02-21T06:46:22;8.60;84.80
84012;DHT22;74081;52.490;13.428;2024-02-21T06:48:50;8.60;84.80
84012;DHT22;74081;52.490;13.428;2024-02-21T06:51:17;8.50;84.80
84012;DHT22;74081;52.490;13.428;2024-02-21T06:53:43;8.50;84.80
84012;DHT22;74081;52.490;13.428;2024-02-21T06:56:10;8.60;84.80
84012;DHT22;74081;52.490;13.428;2024-02-21T06:58:37;8.60;84.80
84012;DHT22;74081;52.490;13.428;2024-02-21T07:01:04;8.60;84.80
84012;DHT22;74081;52.490;13.428;2024-02-21T07:03:31;8.60;84.80
84012;DHT22;74081;52.490;13.428;2024-02-21T07:05:58;8.60;84.80
84012;DHT22;74081;52.490;13.428;2024-02-21T07:08:25;8.60;84.80
84012;DHT22;74081;52.490;13.428;2024-02-21T07:10:53;8.60;84.80
84012;DHT22;74081;52.490;13.428;2024-02-21T07:13:20;8.60;84.80
84012;DHT22;74081;52.490;13.428;2024-02-21T07:15:48;8.60;84.80
84012;DHT22;74081;52.490;13.428;2024-02-21T07:18:15;8.70;84.80
84012;DHT22;74081;52.490;13.428;2024-02-21T07:20:42;8.70;84.80
84012;DHT22;74081;52.490;13.428;2024-02-21T07:23:09;8.70;84.80
84012;DHT22;74081;52.490;13.428;2024-02-21T07:25:36;8.70;84.80
84012;DHT22;74081;52.490;13.428;2024-02-21T07:28:03;8.60;84.80
84012;DHT22;74081;52.490;13.428;2024-02-21T07:30:30;8.70;84.80
84012;DHT22;74081;52.490;13.428;2024-02-21T07:32:57;8.70;84.80
84012;DHT22;74081;52.490;13.428;2024-02-21T07:35:24;8.70;84.80
84012;DHT22;74081;52.490;13.428;2024-02-21T07:37:50;8.70;84.80
84012;DHT22;74081;52.490;13.428;2024-02-21T07:40:18;8.70;84.80
84012;DHT22;74081;52.490;13.428;2024-02-21T07:42:44;8.80;84.80
84012;DHT22;74081;52.490;13.428;2024-02-21T07:45:16;8.80;84.80
84012;DHT22;74081;52.490;13.428;2024-02-21T07:47:45;8.80;84.80
84012;DHT22;74081;52.490;13.428;2024-02-21T07:50:12;8.80;84.80
84012;DHT22;74081;52.490;13.428;2024-02-21T07:52:39;8.80;84.80
84012;DHT22;74081;52.490;13.428;2024-02-21T07:55:06;8.80;84.80
84012;DHT22;74081;52.490;13.428;2024-02-21T07:57:33;8.80;84.80
84012;DHT22;74081;52.490;13.428;2024-02-21T08:00:00;8.70;84.80
84012;DHT22;74081;52.490;13.428;2024-02-21T08:02:27;8.70;84.80
84012;DHT22;74081;52.490;13.428;2024-02-21T08:04:54;8.80;84.80
84012;DHT22;74081;52.490;13.428;2024-02-21T08:07:21;8.80;84.80
84012;DHT22;74081;52.490;13.428;2024-02-21T08:09:47;8.80;84.80
84012;DHT22;74081;52.490;13.428;2024-02-21T08:12:14;8.90;84.80
84012;DHT22;74081;52.490;13.428;2024-02-21T08:14:41;8.90;84.80
84012;DHT22;74081;52.490;13.428;2024-02-21T08:17:08;8.90;84.80
84012;DHT22;74081;52.490;13.428;2024-02-21T08:19:35;8.90;84.80
84012;DHT22;74081;52.490;13.428;2024-02-21T08:22:02;9.00;84.80
84012;DHT22;74081;52.490;13.428;2024-02-21T08:24:30;9.00;84.80
84012;DHT22;74081;52.490;13.428;2024-02-21T08:26:56;9.00;84.80
84012;DHT22;74081;52.490;13.428;2024-02-21T08:29:23;9.10;84.80
84012;DHT22;74081;52.490;13.428;2024-02-21T08:31:50;9.10;84.80
84012;DHT22;74081;52.490;13.428;2024-02-21T08:34:17;9.10;84.80
84012;DHT22;74081;52.490;13.428;2024-02-21T08:36:45;9.20;84.80
84012;DHT22;74081;52.490;13.428;2024-02-21T08:39:11;9.20;84.80
84012;DHT22;74081;52.490;13.428;2024-02-21T08:41:42;9.20;84.80
84012;DHT22;74081;52.490;13.428;2024-02-21T08:44:27;9.30;84.80
84012;DHT22;74081;52.490;13.428;2024-02-21T08:46:54;9.30;84.80
84012;DHT22;74081;52.490;13.428;2024-02-21T08:49:22;9.40;84.80
84012;DHT22;74081;52.490;13.428;2024-02-21T08:51:49;9.30;84.80
84012;DHT22;74081;52.490;13.428;2024-02-21T08:54:16;9.30;84.80
84012;DHT22;74081;52.490;13.428;2024-02-21T08:56:43;9.40;84.80
84012;DHT22;74081;52.490;13.428;2024-02-21T08:59:10;9.50;84.80
84012;DHT22;74081;52.490;13.428;2024-02-21T09:01:37;9.70;84.80
84012;DHT22;74081;52.490;13.428;2024-02-21T09:04:04;9.80;84.80
84012;DHT22;74081;52.490;13.428;2024-02-21T09:06:31;9.80;84.80
84012;DHT22;74081;52.490;13.428;2024-02-21T09:09:00;9.80;84.80
84012;DHT22;74081;52.490;13.428;2024-02-21T09:11:27;9.80;84.80
84012;DHT22;74081;52.490;13.428;2024-02-21T09:13:55;9.80;84.80
84012;DHT22;74081;52.490;13.428;2024-02-21T09:16:22;9.70;84.80
84012;DHT22;74081;52.490;13.428;2024-02-21T09:18:50;9.70;84.80
84012;DHT22;74081;52.490;13.428;2024-02-21T09:21:17;9.70;84.80
84012;DHT22;74081;52.490;13.428;2024-02-21T09:23:45;9.70;84.80
84012;DHT22;74081;52.490;13.428;2024-02-21T09:26:11;9.80;84.80
84012;DHT22;74081;52.490;13.428;2024-02-21T09:28:42;10.00;84.80
84012;DHT22;74081;52.490;13.428;2024-02-21T09:31:09;10.10;84.80
84012;DHT22;74081;52.490;13.428;2024-02-21T09:33:36;10.00;84.80
84012;DHT22;74081;52.490;13.428;2024-02-21T09:36:04;10.10;84.80
84012;DHT22;74081;52.490;13.428;2024-02-21T09:38:34;10.10;84.80
84012;DHT22;74081;52.490;13.428;2024-02-21T09:43:37;10.20;84.80
84012;DHT22;74081;52.490;13.428;2024-02-21T09:46:05;10.30;84.80
84012;DHT22;74081;52.490;13.428;2024-02-21T09:51:02;10.60;84.80
84012;DHT22;74081;52.490;13.428;2024-02-21T09:53:31;10.70;84.80
84012;DHT22;74081;52.490;13.428;2024-02-21T09:55:59;10.70;84.80
84012;DHT22;74081;52.490;13.428;2024-02-21T09:58:26;10.70;84.80
84012;DHT22;74081;52.490;13.428;2024-02-21T10:00:54;10.60;84.80
84012;DHT22;74081;52.490;13.428;2024-02-21T10:03:22;10.70;84.80
84012;DHT22;74081;52.490;13.428;2024-02-21T10:05:49;10.80;84.80
84012;DHT22;74081;52.490;13.428;2024-02-21T10:08:19;10.70;84.80
84012;DHT22;74081;52.490;13.428;2024-02-21T10:10:46;10.70;84.80
84012;DHT22;74081;52.490;13.428;2024-02-21T10:13:26;10.70;84.80
84012;DHT22;74081;52.490;13.428;2024-02-21T10:16:00;10.60;84.80
84012;DHT22;74081;52.490;13.428;2024-02-21T10:18:27;10.60;84.80
84012;DHT22;74081;52.490;13.428;2024-02-21T10:21:04;10.60;84.80
84012;DHT22;74081;52.490;13.428;2024-02-21T10:23:41;10.60;84.80
84012;DHT22;74081;52.490;13.428;2024-02-21T10:26:08;10.70;84.80
84012;DHT22;74081;52.490;13.428;2024-02-21T10:28:36;10.80;84.80
84012;DHT22;74081;52.490;13.428;2024-02-21T10:31:03;10.80;84.80
84012;DHT22;74081;52.490;13.428;2024-02-21T10:33:29;10.80;84.80
84012;DHT22;74081;52.490;13.428;2024-02-21T10:36:08;10.80;84.80
84012;DHT22;74081;52.490;13.428;2024-02-21T10:38:36;10.80;84.80
84012;DHT22;74081;52.490;13.428;2024-02-21T10:41:04;10.80;84.80
84012;DHT22;74081;52.490;13.428;2024-02-21T10:43:38;10.90;84.80
84012;DHT22;74081;52.490;13.428;2024-02-21T10:46:08;10.90;84.80
84012;DHT22;74081;52.490;13.428;2024-02-21T10:48:42;10.80;84.80
84012;DHT22;74081;52.490;13.428;2024-02-21T10:56:29;11.10;84.80
84012;DHT22;74081;52.490;13.428;2024-02-21T10:58:57;11.20;84.80
84012;DHT22;74081;52.490;13.428;2024-02-21T11:01:24;11.10;84.80
84012;DHT22;74081;52.490;13.428;2024-02-21T11:03:55;11.10;84.80
84012;DHT22;74081;52.490;13.428;2024-02-21T11:06:23;11.10;84.80
84012;DHT22;74081;52.490;13.428;2024-02-21T11:11:34;11.10;84.80
84012;DHT22;74081;52.490;13.428;2024-02-21T11:14:21;11.10;84.80
84012;DHT22;74081;52.490;13.428;2024-02-21T11:16:48;11.00;84.80
84012;DHT22;74081;52.490;13.428;2024-02-21T11:21:48;11.10;84.80
84012;DHT22;74081;52.490;13.428;2024-02-21T11:26:56;11.10;84.80
84012;DHT22;74081;52.490;13.428;2024-02-21T11:29:23;11.10;84.80
84012;DHT22;74081;52.490;13.428;2024-02-21T11:31:51;11.10;84.80
84012;DHT22;74081;52.490;13.428;2024-02-21T11:34:19;11.20;84.80
84012;DHT22;74081;52.490;13.428;2024-02-21T11:36:49;11.30;84.80
84012;DHT22;74081;52.490;13.428;2024-02-21T11:39:25;11.30;84.80
84012;DHT22;74081;52.490;13.428;2024-02-21T11:42:05;11.40;84.80
84012;DHT22;74081;52.490;13.428;2024-02-21T11:44:32;11.40;84.80
84012;DHT22;74081;52.490;13.428;2024-02-21T11:46:59;11.30;84.80
84012;DHT22;74081;52.490;13.428;2024-02-21T11:49:29;11.20;84.80
84012;DHT22;74081;52.490;13.428;2024-02-21T11:52:03;11.50;84.80
84012;DHT22;74081;52.490;13.428;2024-02-21T11:54:33;11.60;84.80
84012;DHT22;74081;52.490;13.428;2024-02-21T11:57:00;11.60;84.80
84012;DHT22;74081;52.490;13.428;2024-02-21T11:59:29;11.50;84.80
84012;DHT22;74081;52.490;13.428;2024-02-21T12:01:57;11.40;84.80
84012;DHT22;74081;52.490;13.428;2024-02-21T12:04:25;11.30;84.80
84012;DHT22;74081;52.490;13.428;2024-02-21T12:06:55;11.20;84.80
84012;DHT22;74081;52.490;13.428;2024-02-21T12:09:22;11.20;84.80
84012;DHT22;74081;52.490;13.428;2024-02-21T12:14:26;11.20;84.80
84012;DHT22;74081;52.490;13.428;2024-02-21T12:16:54;11.50;84.80
84012;DHT22;74081;52.490;13.428;2024-02-21T12:19:20;11.50;84.80
84012;DHT22;74081;52.490;13.428;2024-02-21T12:21:48;11.50;84.80
84012;DHT22;74081;52.490;13.428;2024-02-21T12:24:26;11.50;84.80
84012;DHT22;74081;52.490;13.428;2024-02-21T12:26:53;11.60;84.80
84012;DHT22;74081;52.490;13.428;2024-02-21T12:29:21;11.80;84.80
84012;DHT22;74081;52.490;13.428;2024-02-21T12:31:48;11.80;84.80
84012;DHT22;74081;52.490;13.428;2024-02-21T12:34:15;11.90;84.80
84012;DHT22;74081;52.490;13.428;2024-02-21T12:36:53;12.00;84.80
84012;DHT22;74081;52.490;13.428;2024-02-21T12:39:20;12.00;84.80
84012;DHT22;74081;52.490;13.428;2024-02-21T12:41:47;11.90;84.80
84012;DHT22;74081;52.490;13.428;2024-02-21T12:44:13;11.90;84.80
84012;DHT22;74081;52.490;13.428;2024-02-21T12:46:43;11.60;84.80
84012;DHT22;74081;52.490;13.428;2024-02-21T12:49:09;11.60;84.80
84012;DHT22;74081;52.490;13.428;2024-02-21T12:51:37;11.70;84.80
84012;DHT22;74081;52.490;13.428;2024-02-21T12:54:04;11.70;84.80
84012;DHT22;74081;52.490;13.428;2024-02-21T12:56:31;11.80;84.80
84012;DHT22;74081;52.490;13.428;2024-02-21T12:58:58;12.00;84.80
84012;DHT22;74081;52.490;13.428;2024-02-21T13:01:25;12.00;84.80
84012;DHT22;74081;52.490;13.428;2024-02-21T13:03:53;12.00;84.80
84012;DHT22;74081;52.490;13.428;2024-02-21T13:06:20;12.00;84.80
84012;DHT22;74081;52.490;13.428;2024-02-21T13:08:47;12.10;84.80
84012;DHT22;74081;52.490;13.428;2024-02-21T13:11:14;12.20;84.80
84012;DHT22;74081;52.490;13.428;2024-02-21T13:13:41;12.30;84.80
84012;DHT22;74081;52.490;13.428;2024-02-21T13:16:08;12.30;84.80
84012;DHT22;74081;52.490;13.428;2024-02-21T13:18:37;12.30;84.80
84012;DHT22;74081;52.490;13.428;2024-02-21T13:21:09;12.20;84.80
84012;DHT22;74081;52.490;13.428;2024-02-21T13:23:36;12.20;84.80
84012;DHT22;74081;52.490;13.428;2024-02-21T13:26:03;12.10;84.80
84012;DHT22;74081;52.490;13.428;2024-02-21T13:28:30;12.00;84.80
84012;DHT22;74081;52.490;13.428;2024-02-21T13:30:57;12.00;84.80
84012;DHT22;74081;52.490;13.428;2024-02-21T13:33:24;11.90;84.80
84012;DHT22;74081;52.490;13.428;2024-02-21T13:35:51;11.90;84.80
84012;DHT22;74081;52.490;13.428;2024-02-21T13:38:19;11.90;84.80
84012;DHT22;74081;52.490;13.428;2024-02-21T13:40:46;11.80;84.80
84012;DHT22;74081;52.490;13.428;2024-02-21T13:43:13;11.70;84.80
84012;DHT22;74081;52.490;13.428;2024-02-21T13:45:39;11.70;84.80
84012;DHT22;74081;52.490;13.428;2024-02-21T13:48:09;11.70;84.80
84012;DHT22;74081;52.490;13.428;2024-02-21T13:50:39;11.70;84.80
84012;DHT22;74081;52.490;13.428;2024-02-21T13:53:09;11.70;84.80
84012;DHT22;74081;52.490;13.428;2024-02-21T13:55:36;11.60;84.80
84012;DHT22;74081;52.490;13.428;2024-02-21T13:58:04;11.60;84.80
84012;DHT22;74081;52.490;13.428;2024-02-21T14:00:30;11.50;84.80
84012;DHT22;74081;52.490;13.428;2024-02-21T14:02:59;11.50;84.80
84012;DHT22;74081;52.490;13.428;2024-02-21T14:05:28;11.50;84.80
84012;DHT22;74081;52.490;13.428;2024-02-21T14:07:54;11.60;84.80
84012;DHT22;74081;52.490;13.428;2024-02-21T14:10:21;11.60;84.80
84012;DHT22;74081;52.490;13.428;2024-02-21T14:12:48;11.70;84.80
84012;DHT22;74081;52.490;13.428;2024-02-21T14:15:15;11.70;84.80
84012;DHT22;74081;52.490;13.428;2024-02-21T14:17:45;11.60;84.80
84012;DHT22;74081;52.490;13.428;2024-02-21T14:20:13;11.60;84.80
84012;DHT22;74081;52.490;13.428;2024-02-21T14:22:43;11.60;84.80
84012;DHT22;74081;52.490;13.428;2024-02-21T14:25:10;11.60;84.80
84012;DHT22;74081;52.490;13.428;2024-02-21T14:27:37;11.70;84.80
84012;DHT22;74081;52.490;13.428;2024-02-21T14:30:06;11.70;84.80
84012;DHT22;74081;52.490;13.428;2024-02-21T14:32:32;11.70;84.80
84012;DHT22;74081;52.490;13.428;2024-02-21T14:35:00;11.70;84.80
84012;DHT22;74081;52.490;13.428;2024-02-21T14:37:32;11.70;84.80
84012;DHT22;74081;52.490;13.428;2024-02-21T14:39:59;11.70;84.80
84012;DHT22;74081;52.490;13.428;2024-02-21T14:42:28;11.70;84.80
84012;DHT22;74081;52.490;13.428;2024-02-21T14:44:55;11.70;84.80
84012;DHT22;74081;52.490;13.428;2024-02-21T14:47:33;11.70;84.80
84012;DHT22;74081;52.490;13.428;2024-02-21T14:50:02;11.70;84.80
84012;DHT22;74081;52.490;13.428;2024-02-21T14:52:31;11.70;84.80
84012;DHT22;74081;52.490;13.428;2024-02-21T14:54:59;11.60;84.80
84012;DHT22;74081;52.490;13.428;2024-02-21T14:57:26;11.50;84.80
84012;DHT22;74081;52.490;13.428;2024-02-21T14:59:53;11.50;84.80
84012;DHT22;74081;52.490;13.428;2024-02-21T15:02:23;11.50;84.80
84012;DHT22;74081;52.490;13.428;2024-02-21T15:04:49;11.50;84.80
84012;DHT22;74081;52.490;13.428;2024-02-21T15:07:19;11.50;84.80
84012;DHT22;74081;52.490;13.428;2024-02-21T15:09:46;11.50;84.80
84012;DHT22;74081;52.490;13.428;2024-02-21T15:12:13;11.50;84.80
84012;DHT22;74081;52.490;13.428;2024-02-21T15:14:40;11.50;84.80
84012;DHT22;74081;52.490;13.428;2024-02-21T15:17:07;11.50;84.80
84012;DHT22;74081;52.490;13.428;2024-02-21T15:19:34;11.40;84.80
84012;DHT22;74081;52.490;13.428;2024-02-21T15:22:05;11.40;84.80
84012;DHT22;74081;52.490;13.428;2024-02-21T15:24:32;11.40;84.80
84012;DHT22;74081;52.490;13.428;2024-02-21T15:26:59;11.40;84.80
84012;DHT22;74081;52.490;13.428;2024-02-21T15:29:26;11.30;84.80
84012;DHT22;74081;52.490;13.428;2024-02-21T15:31:54;11.20;84.80
84012;DHT22;74081;52.490;13.428;2024-02-21T15:34:22;11.10;84.80
84012;DHT22;74081;52.490;13.428;2024-02-21T15:36:50;11.00;84.80
84012;DHT22;74081;52.490;13.428;2024-02-21T15:39:17;10.80;84.80
84012;DHT22;74081;52.490;13.428;2024-02-21T15:41:44;10.80;84.80
84012;DHT22;74081;52.490;13.428;2024-02-21T15:44:12;10.70;84.80
84012;DHT22;74081;52.490;13.428;2024-02-21T15:46:39;10.60;84.80
84012;DHT22;74081;52.490;13.428;2024-02-21T15:49:07;10.60;84.80